createdAt,value
2022-10-25T00:01:19.395Z,100585.66
2022-10-25T00:03:47.171Z,100588.97
2022-10-25T00:06:15.244Z,100594.50
2022-10-25T00:08:42.911Z,100592.34
2022-10-25T00:11:19.559Z,100591.00
2022-10-25T00:13:49.489Z,100586.38
2022-10-25T00:16:18.896Z,100588.56
2022-10-25T00:18:51.472Z,100589.91
2022-10-25T00:21:20.980Z,100589.06
2022-10-25T00:23:49.386Z,100588.91
2022-10-25T00:26:17.222Z,100592.41
2022-10-25T00:28:44.811Z,100598.44
2022-10-25T00:31:15.454Z,100607.75
2022-10-25T00:33:44.518Z,100602.94
2022-10-25T00:36:13.714Z,100599.28
2022-10-25T00:38:41.908Z,100602.09
2022-10-25T00:41:10.698Z,100598.06
2022-10-25T00:43:40.814Z,100599.06
2022-10-25T00:46:14.794Z,100599.28
2022-10-25T00:48:46.570Z,100593.09
2022-10-25T00:51:14.222Z,100605.47
2022-10-25T00:53:43.518Z,100612.16
2022-10-25T00:56:17.155Z,100613.81
2022-10-25T00:58:48.175Z,100620.31
2022-10-25T01:01:17.508Z,100619.16
2022-10-25T01:03:46.757Z,100618.97
2022-10-25T01:06:19.689Z,100619.78
2022-10-25T01:08:49.247Z,100626.78
2022-10-25T01:13:50.208Z,100637.00
2022-10-25T01:16:27.631Z,100636.47
2022-10-25T01:19:03.427Z,100640.31
2022-10-25T01:24:59.027Z,100635.97
2022-10-25T01:28:00.634Z,100636.13
2022-10-25T01:30:48.846Z,100628.13
2022-10-25T01:33:23.696Z,100627.63
2022-10-25T01:35:58.568Z,100625.63
2022-10-25T01:38:36.297Z,100622.81
2022-10-25T01:41:13.744Z,100614.28
2022-10-25T01:43:49.656Z,100615.44
2022-10-25T01:46:26.531Z,100612.47
2022-10-25T01:49:02.209Z,100616.47
2022-10-25T01:51:29.858Z,100607.13
2022-10-25T01:53:57.459Z,100620.97
2022-10-25T01:56:28.958Z,100617.13
2022-10-25T01:59:17.463Z,100621.78
2022-10-25T02:01:59.482Z,100612.78
2022-10-25T02:04:40.469Z,100615.97
2022-10-25T02:07:12.468Z,100616.13
2022-10-25T02:09:46.568Z,100623.78
2022-10-25T02:12:19.427Z,100613.63
2022-10-25T02:14:57.785Z,100629.13
2022-10-25T02:17:28.486Z,100628.78
2022-10-25T02:20:00.233Z,100631.13
2022-10-25T02:22:32.878Z,100620.97
2022-10-25T02:25:02.328Z,100627.47
2022-10-25T02:27:32.331Z,100620.63
2022-10-25T02:30:00.890Z,100624.13
2022-10-25T02:32:31.476Z,100628.47
2022-10-25T02:34:59.221Z,100618.47
2022-10-25T02:37:26.819Z,100633.66
2022-10-25T02:39:54.481Z,100628.78
2022-10-25T02:42:22.038Z,100621.97
2022-10-25T02:44:49.643Z,100628.78
2022-10-25T02:47:17.249Z,100627.44
2022-10-25T02:49:46.140Z,100632.78
2022-10-25T02:52:13.735Z,100624.78
2022-10-25T02:54:41.431Z,100623.44
2022-10-25T02:57:09.020Z,100623.63
2022-10-25T02:59:36.578Z,100618.78
2022-10-25T03:02:04.178Z,100626.78
2022-10-25T03:04:31.734Z,100621.44
2022-10-25T03:07:00.627Z,100621.97
2022-10-25T03:09:28.221Z,100629.16
2022-10-25T03:11:55.777Z,100630.13
2022-10-25T03:14:23.388Z,100632.13
2022-10-25T03:16:50.976Z,100632.44
2022-10-25T03:19:18.534Z,100625.97
2022-10-25T03:21:46.112Z,100633.81
2022-10-25T03:24:15.118Z,100633.97
2022-10-25T03:26:42.697Z,100629.81
2022-10-25T03:29:10.841Z,100633.50
2022-10-25T03:31:38.460Z,100627.78
2022-10-25T03:34:06.020Z,100634.09
2022-10-25T03:36:33.641Z,100635.97
2022-10-25T03:39:01.254Z,100639.81
2022-10-25T03:41:30.129Z,100641.97
2022-10-25T03:43:57.690Z,100644.63
2022-10-25T03:46:25.256Z,100647.28
2022-10-25T03:48:52.838Z,100651.81
2022-10-25T03:51:20.420Z,100643.13
2022-10-25T03:53:48.078Z,100646.47
2022-10-25T03:56:15.686Z,100643.47
2022-10-25T03:58:44.622Z,100643.63
2022-10-25T04:01:12.436Z,100645.81
2022-10-25T04:03:40.060Z,100641.13
2022-10-25T04:06:08.083Z,100653.97
2022-10-25T04:08:35.725Z,100651.31
2022-10-25T04:11:03.307Z,100657.47
2022-10-25T04:13:30.954Z,100645.97
2022-10-25T04:15:59.926Z,100659.47
2022-10-25T04:18:27.488Z,100658.81
2022-10-25T04:20:55.049Z,100656.28
2022-10-25T04:23:22.719Z,100652.97
2022-10-25T04:25:50.906Z,100657.81
2022-10-25T04:28:18.494Z,100650.78
2022-10-25T04:30:46.102Z,100657.97
2022-10-25T04:33:15.077Z,100653.16
2022-10-25T04:35:42.665Z,100662.84
2022-10-25T04:38:11.023Z,100668.47
2022-10-25T04:40:38.666Z,100669.50
2022-10-25T04:43:06.301Z,100670.47
2022-10-25T04:45:33.923Z,100674.31
2022-10-25T04:48:01.534Z,100671.97
2022-10-25T04:50:30.553Z,100669.78
2022-10-25T04:52:58.092Z,100663.97
2022-10-25T04:55:25.671Z,100662.47
2022-10-25T04:57:53.223Z,100670.81
2022-10-25T05:00:20.806Z,100667.47
2022-10-25T05:02:48.735Z,100661.16
2022-10-25T05:05:16.738Z,100667.13
2022-10-25T05:07:45.869Z,100672.81
2022-10-25T05:10:13.530Z,100665.44
2022-10-25T05:12:41.158Z,100666.63
2022-10-25T05:15:09.823Z,100681.97
2022-10-25T05:17:37.748Z,100687.13
2022-10-25T05:20:06.438Z,100688.94
2022-10-25T05:22:34.076Z,100685.94
2022-10-25T05:25:02.992Z,100686.75
2022-10-25T05:27:30.593Z,100687.91
2022-10-25T05:29:58.192Z,100693.75
2022-10-25T05:32:25.858Z,100682.56
2022-10-25T05:34:53.413Z,100692.06
2022-10-25T05:37:21.011Z,100689.56
2022-10-25T05:39:48.569Z,100695.72
2022-10-25T05:42:17.484Z,100699.38
2022-10-25T05:44:45.140Z,100703.56
2022-10-25T05:47:13.316Z,100697.56
2022-10-25T05:49:42.273Z,100699.59
2022-10-25T05:52:10.391Z,100699.75
2022-10-25T05:54:37.965Z,100709.41
2022-10-25T05:57:05.538Z,100712.41
2022-10-25T05:59:34.431Z,100717.56
2022-10-25T06:02:02.141Z,100722.75
2022-10-25T06:04:30.056Z,100731.75
2022-10-25T06:06:58.031Z,100728.09
2022-10-25T06:09:25.559Z,100732.22
2022-10-25T06:11:53.148Z,100732.59
2022-10-25T06:14:20.704Z,100741.75
2022-10-25T06:16:49.677Z,100742.13
2022-10-25T06:19:17.286Z,100731.09
2022-10-25T06:21:45.011Z,100732.28
2022-10-25T06:24:12.852Z,100736.44
2022-10-25T06:26:40.432Z,100740.28
2022-10-25T06:29:08.351Z,100735.59
2022-10-25T06:31:35.913Z,100732.78
2022-10-25T06:34:04.942Z,100748.75
2022-10-25T06:36:32.859Z,100746.41
2022-10-25T06:39:05.740Z,100758.78
2022-10-25T06:41:36.381Z,100759.75
2022-10-25T06:44:06.425Z,100752.78
2022-10-25T06:46:57.834Z,100768.13
2022-10-25T06:49:25.757Z,100765.63
2022-10-25T06:51:53.371Z,100766.47
2022-10-25T06:54:21.015Z,100771.50
2022-10-25T06:56:48.995Z,100776.69
2022-10-25T06:59:17.096Z,100782.34
2022-10-25T07:01:44.780Z,100791.91
2022-10-25T07:04:12.418Z,100795.72
2022-10-25T07:06:41.424Z,100779.22
2022-10-25T07:09:10.208Z,100801.25
2022-10-25T07:11:37.970Z,100787.56
2022-10-25T07:14:05.810Z,100797.25
2022-10-25T07:16:33.494Z,100798.75
2022-10-25T07:19:01.798Z,100794.56
2022-10-25T07:21:31.103Z,100811.25
2022-10-25T07:24:00.167Z,100805.75
2022-10-25T07:26:30.849Z,100807.25
2022-10-25T07:29:01.200Z,100800.25
2022-10-25T07:31:31.399Z,100813.25
2022-10-25T07:34:00.953Z,100792.41
2022-10-25T07:36:29.067Z,100805.91
2022-10-25T07:38:57.001Z,100809.25
2022-10-25T07:41:26.911Z,100807.91
2022-10-25T07:43:55.333Z,100806.50
2022-10-25T07:46:23.302Z,100807.13
2022-10-25T07:48:52.466Z,100810.66
2022-10-25T07:51:20.105Z,100809.94
2022-10-25T07:53:47.847Z,100805.06
2022-10-25T07:56:20.676Z,100806.22
2022-10-25T07:58:52.784Z,100813.69
2022-10-25T08:01:23.224Z,100815.63
2022-10-25T08:03:51.245Z,100816.81
2022-10-25T08:06:19.167Z,100816.78
2022-10-25T08:08:47.347Z,100814.69
2022-10-25T08:11:15.308Z,100822.16
2022-10-25T08:13:42.917Z,100815.75
2022-10-25T08:16:11.910Z,100814.69
2022-10-25T08:18:39.473Z,100811.44
2022-10-25T08:21:07.179Z,100811.56
2022-10-25T08:23:34.845Z,100817.06
2022-10-25T08:26:02.813Z,100819.00
2022-10-25T08:28:31.654Z,100828.94
2022-10-25T08:31:00.761Z,100818.19
2022-10-25T08:33:30.332Z,100826.06
2022-10-25T08:36:01.205Z,100827.47
2022-10-25T08:38:28.798Z,100837.06
2022-10-25T08:41:05.888Z,100830.41
2022-10-25T08:43:49.983Z,100834.38
2022-10-25T08:46:21.281Z,100835.31
2022-10-25T08:48:56.380Z,100834.38
2022-10-25T08:51:28.388Z,100836.13
2022-10-25T08:53:59.781Z,100835.41
2022-10-25T08:56:29.610Z,100835.72
2022-10-25T08:59:00.776Z,100836.72
2022-10-25T09:01:32.530Z,100833.31
2022-10-25T09:04:01.754Z,100835.44
2022-10-25T09:06:35.592Z,100828.75
2022-10-25T09:09:16.103Z,100834.91
2022-10-25T09:11:53.651Z,100834.56
2022-10-25T09:14:33.272Z,100840.53
2022-10-25T09:17:08.387Z,100838.69
2022-10-25T09:19:44.280Z,100834.03
2022-10-25T09:22:19.368Z,100825.47
2022-10-25T09:24:56.898Z,100835.75
2022-10-25T09:27:32.920Z,100827.22
2022-10-25T09:30:07.260Z,100837.44
2022-10-25T09:32:40.363Z,100835.88
2022-10-25T09:35:17.697Z,100828.31
2022-10-25T09:37:49.776Z,100826.56
2022-10-25T09:40:21.755Z,100832.53
2022-10-25T09:42:53.586Z,100823.84
2022-10-25T09:45:25.737Z,100826.34
2022-10-25T09:48:00.735Z,100826.06
2022-10-25T09:50:33.135Z,100842.88
2022-10-25T09:53:11.099Z,100837.81
2022-10-25T09:55:47.434Z,100846.19
2022-10-25T09:58:20.499Z,100851.13
2022-10-25T10:00:48.591Z,100856.72
2022-10-25T10:03:16.394Z,100854.88
2022-10-25T10:05:51.644Z,100851.72
2022-10-25T10:08:19.529Z,100866.63
2022-10-25T10:10:49.494Z,100863.00
2022-10-25T10:13:25.259Z,100865.41
2022-10-25T10:15:57.411Z,100865.50
2022-10-25T10:18:27.622Z,100861.59
2022-10-25T10:21:19.835Z,100854.41
2022-10-25T10:23:53.611Z,100858.44
2022-10-25T10:26:29.321Z,100863.34
2022-10-25T10:29:08.876Z,100868.19
2022-10-25T10:31:38.847Z,100866.81
2022-10-25T10:34:08.444Z,100871.63
2022-10-25T10:36:37.546Z,100870.38
2022-10-25T10:39:21.095Z,100865.47
2022-10-25T10:42:00.812Z,100863.16
2022-10-25T10:44:28.586Z,100864.66
2022-10-25T10:46:56.732Z,100852.00
2022-10-25T10:49:36.467Z,100860.06
2022-10-25T10:52:06.532Z,100853.47
2022-10-25T10:54:38.827Z,100845.41
2022-10-25T10:57:08.176Z,100843.44
2022-10-25T10:59:44.036Z,100848.00
2022-10-25T11:02:29.497Z,100850.31
2022-10-25T11:04:57.992Z,100848.19
2022-10-25T11:07:31.625Z,100847.44
2022-10-25T11:10:20.385Z,100852.91
2022-10-25T11:13:06.273Z,100856.97
2022-10-25T11:15:43.834Z,100856.91
2022-10-25T11:18:13.968Z,100865.78
2022-10-25T11:20:51.884Z,100860.88
2022-10-25T11:23:29.795Z,100863.00
2022-10-25T11:26:02.921Z,100852.81
2022-10-25T11:28:45.334Z,100861.13
2022-10-25T11:31:27.772Z,100864.72
2022-10-25T11:34:09.820Z,100852.34
2022-10-25T11:36:59.217Z,100851.41
2022-10-25T11:39:48.186Z,100857.06
2022-10-25T11:42:37.025Z,100858.63
2022-10-25T11:45:22.751Z,100859.34
2022-10-25T11:48:02.773Z,100854.41
2022-10-25T11:50:40.008Z,100853.66
2022-10-25T11:53:31.218Z,100861.50
2022-10-25T11:56:05.919Z,100865.34
2022-10-25T11:58:44.571Z,100857.28
2022-10-25T12:01:28.490Z,100847.38
2022-10-25T12:04:10.865Z,100855.38
2022-10-25T12:06:46.685Z,100844.63
2022-10-25T12:09:25.908Z,100849.94
2022-10-25T12:12:00.612Z,100836.91
2022-10-25T12:14:33.148Z,100842.84
2022-10-25T12:17:02.836Z,100852.84
2022-10-25T12:19:36.483Z,100843.28
2022-10-25T12:22:07.619Z,100843.63
2022-10-25T12:24:40.405Z,100847.34
2022-10-25T12:27:11.709Z,100842.34
2022-10-25T12:29:43.140Z,100847.16
2022-10-25T12:32:16.035Z,100848.59
2022-10-25T12:34:46.733Z,100841.47
2022-10-25T12:37:22.476Z,100839.91
2022-10-25T12:39:50.181Z,100830.88
2022-10-25T12:42:23.276Z,100827.19
2022-10-25T12:45:13.457Z,100829.09
2022-10-25T12:47:54.872Z,100829.41
2022-10-25T12:51:00.403Z,100827.41
2022-10-25T12:53:59.755Z,100826.66
2022-10-25T12:56:39.468Z,100827.63
2022-10-25T12:59:17.629Z,100822.63
2022-10-25T13:02:05.052Z,100825.97
2022-10-25T13:04:55.192Z,100825.19
2022-10-25T13:07:25.138Z,100820.78
2022-10-25T13:09:53.463Z,100821.81
2022-10-25T13:12:26.229Z,100819.75
2022-10-25T13:14:57.138Z,100816.94
2022-10-25T13:18:02.311Z,100807.13
2022-10-25T13:20:47.715Z,100810.66
2022-10-25T13:24:00.547Z,100799.41
2022-10-25T13:26:31.941Z,100799.09
2022-10-25T13:29:02.444Z,100788.16
2022-10-25T13:31:47.304Z,100788.84
2022-10-25T13:34:37.020Z,100795.69
2022-10-25T13:37:44.608Z,100788.84
2022-10-25T13:40:30.854Z,100794.88
2022-10-25T13:43:01.993Z,100793.00
2022-10-25T13:45:45.649Z,100790.69
2022-10-25T13:48:29.725Z,100788.47
2022-10-25T13:50:59.622Z,100782.81
2022-10-25T13:53:35.986Z,100784.91
2022-10-25T13:56:06.762Z,100782.03
2022-10-25T13:58:51.458Z,100784.50
2022-10-25T14:01:57.318Z,100784.72
2022-10-25T14:04:37.195Z,100785.91
2022-10-25T14:07:50.708Z,100776.38
2022-10-25T14:10:25.114Z,100780.94
2022-10-25T14:12:58.171Z,100776.00
2022-10-25T14:15:42.319Z,100772.03
2022-10-25T14:18:18.481Z,100774.91
2022-10-25T14:20:50.142Z,100770.75
2022-10-25T14:23:22.887Z,100776.91
2022-10-25T14:25:53.763Z,100761.56
2022-10-25T14:28:26.564Z,100767.31
2022-10-25T14:30:56.436Z,100762.38
2022-10-25T14:33:29.720Z,100767.69
2022-10-25T14:36:07.860Z,100775.06
2022-10-25T14:38:39.534Z,100775.22
2022-10-25T14:41:13.378Z,100771.66
2022-10-25T14:43:42.673Z,100771.66
2022-10-25T14:46:17.855Z,100761.72
2022-10-25T14:48:47.734Z,100759.59
2022-10-25T14:51:21.736Z,100753.16
2022-10-25T14:53:53.825Z,100763.72
2022-10-25T14:56:24.980Z,100761.59
2022-10-25T14:58:52.927Z,100761.34
2022-10-25T15:01:22.734Z,100757.19
2022-10-25T15:03:53.976Z,100764.41
2022-10-25T15:06:26.202Z,100758.59
2022-10-25T15:09:14.847Z,100757.16
2022-10-25T15:12:15.913Z,100757.72
2022-10-25T15:14:43.608Z,100769.69
2022-10-25T15:17:27.102Z,100762.84
2022-10-25T15:20:07.222Z,100757.66
2022-10-25T15:22:44.150Z,100757.78
2022-10-25T15:25:20.436Z,100759.16
2022-10-25T15:27:48.858Z,100753.56
2022-10-25T15:30:34.809Z,100754.94
2022-10-25T15:33:02.720Z,100753.69
2022-10-25T15:35:32.215Z,100752.03
2022-10-25T15:38:01.172Z,100754.47
2022-10-25T15:40:28.763Z,100759.19
2022-10-25T15:42:56.321Z,100754.19
2022-10-25T15:45:23.946Z,100763.00
2022-10-25T15:47:53.415Z,100758.41
2022-10-25T15:50:22.673Z,100750.06
2022-10-25T15:52:50.473Z,100754.19
2022-10-25T15:55:22.130Z,100756.59
2022-10-25T15:57:50.834Z,100749.94
2022-10-25T16:00:27.263Z,100760.88
2022-10-25T16:02:56.525Z,100739.59
2022-10-25T16:05:26.935Z,100742.44
2022-10-25T16:07:54.957Z,100744.03
2022-10-25T16:10:26.008Z,100743.75
2022-10-25T16:12:59.558Z,100745.81
2022-10-25T16:15:27.621Z,100745.00
2022-10-25T16:17:55.139Z,100742.31
2022-10-25T16:20:25.229Z,100742.09
2022-10-25T16:22:53.145Z,100746.00
2022-10-25T16:25:21.872Z,100741.78
2022-10-25T16:27:50.871Z,100740.44
2022-10-25T16:30:21.080Z,100739.53
2022-10-25T16:32:49.265Z,100738.03
2022-10-25T16:35:24.026Z,100738.44
2022-10-25T16:37:51.893Z,100733.06
2022-10-25T16:40:22.530Z,100731.66
2022-10-25T16:42:51.647Z,100733.34
2022-10-25T16:45:23.607Z,100734.16
2022-10-25T16:47:51.247Z,100735.84
2022-10-25T16:50:23.046Z,100733.16
2022-10-25T16:52:50.903Z,100729.81
2022-10-25T16:55:19.443Z,100733.34
2022-10-25T17:00:18.506Z,100721.13
2022-10-25T17:02:46.405Z,100718.84
2022-10-25T17:05:19.526Z,100721.03
2022-10-25T17:07:47.206Z,100720.38
2022-10-25T17:10:15.410Z,100716.06
2022-10-25T17:12:44.539Z,100719.88
2022-10-25T17:15:13.262Z,100713.97
2022-10-25T17:17:42.542Z,100712.66
2022-10-25T17:20:11.632Z,100714.50
2022-10-25T17:22:39.802Z,100708.03
2022-10-25T17:25:09.464Z,100700.00
2022-10-25T17:27:41.695Z,100707.13
2022-10-25T17:30:11.021Z,100697.13
2022-10-25T17:32:39.332Z,100699.63
2022-10-25T17:35:08.913Z,100705.44
2022-10-25T17:37:39.170Z,100698.44
2022-10-25T17:40:09.946Z,100697.13
2022-10-25T17:42:37.670Z,100700.53
2022-10-25T17:45:06.390Z,100695.84
2022-10-25T17:47:34.083Z,100686.13
2022-10-25T17:50:01.756Z,100684.22
2022-10-25T17:52:30.948Z,100682.72
2022-10-25T17:54:58.636Z,100678.84
2022-10-25T17:57:26.387Z,100679.19
2022-10-25T17:59:54.150Z,100689.56
2022-10-25T18:02:21.989Z,100678.19
2022-10-25T18:05:02.232Z,100684.00
2022-10-25T18:07:39.075Z,100684.22
2022-10-25T18:10:07.330Z,100682.91
2022-10-25T18:12:34.993Z,100680.03
2022-10-25T18:15:02.809Z,100694.25
2022-10-25T18:17:30.461Z,100688.91
2022-10-25T18:19:58.160Z,100695.63
2022-10-25T18:22:26.244Z,100691.00
2022-10-25T18:24:55.175Z,100685.19
2022-10-25T18:27:22.928Z,100686.00
2022-10-25T18:29:50.549Z,100687.09
2022-10-25T18:32:18.152Z,100696.41
2022-10-25T18:34:45.846Z,100692.75
2022-10-25T18:37:13.512Z,100698.94
2022-10-25T18:39:41.101Z,100699.59
2022-10-25T18:42:10.013Z,100706.28
2022-10-25T18:44:39.982Z,100698.88
2022-10-25T18:47:07.746Z,100702.59
2022-10-25T18:49:35.996Z,100701.94
2022-10-25T18:52:03.725Z,100698.41
2022-10-25T18:54:31.394Z,100704.97
2022-10-25T18:56:59.021Z,100695.06
2022-10-25T18:59:28.022Z,100687.63
2022-10-25T19:01:55.887Z,100686.84
2022-10-25T19:04:23.631Z,100695.94
2022-10-25T19:06:51.202Z,100692.81
2022-10-25T19:09:18.764Z,100690.13
2022-10-25T19:11:46.454Z,100698.00
2022-10-25T19:14:14.225Z,100692.97
2022-10-25T19:16:43.663Z,100695.16
2022-10-25T19:19:11.913Z,100693.22
2022-10-25T19:21:39.597Z,100684.22
2022-10-25T19:24:11.735Z,100687.53
2022-10-25T19:26:39.469Z,100677.38
2022-10-25T19:29:07.337Z,100682.41
2022-10-25T19:31:34.978Z,100675.56
2022-10-25T19:34:04.093Z,100685.59
2022-10-25T19:36:32.078Z,100685.91
2022-10-25T19:39:00.169Z,100687.13
2022-10-25T19:41:29.203Z,100688.81
2022-10-25T19:43:58.693Z,100689.75
2022-10-25T19:46:26.557Z,100689.09
2022-10-25T19:48:56.289Z,100680.72
2022-10-25T19:51:25.404Z,100679.06
2022-10-25T19:53:53.222Z,100679.78
2022-10-25T19:56:22.777Z,100676.06
2022-10-25T19:58:51.419Z,100682.97
2022-10-25T20:01:20.936Z,100679.50
2022-10-25T20:03:50.791Z,100673.84
2022-10-25T20:06:24.280Z,100676.00
2022-10-25T20:08:55.193Z,100672.53
2022-10-25T20:11:24.415Z,100681.72
2022-10-25T20:13:53.730Z,100666.69
2022-10-25T20:16:21.444Z,100677.38
2022-10-25T20:18:49.179Z,100680.38
2022-10-25T20:21:19.878Z,100672.22
2022-10-25T20:23:50.689Z,100671.88
2022-10-25T20:26:21.636Z,100660.91
2022-10-25T20:28:49.860Z,100661.84
2022-10-25T20:31:19.380Z,100662.34
2022-10-25T20:33:47.223Z,100663.69
2022-10-25T20:36:15.284Z,100663.19
2022-10-25T20:38:43.119Z,100662.69
2022-10-25T20:41:12.628Z,100662.56
2022-10-25T20:43:43.084Z,100666.56
2022-10-25T20:46:10.856Z,100665.75
2022-10-25T20:48:38.529Z,100665.91
2022-10-25T20:51:07.857Z,100665.28
2022-10-25T20:53:36.775Z,100657.75
2022-10-25T20:56:04.674Z,100648.25
2022-10-25T20:58:32.588Z,100645.28
2022-10-25T21:01:01.936Z,100639.34
2022-10-25T21:03:31.499Z,100640.19
2022-10-25T21:06:00.820Z,100641.75
2022-10-25T21:08:28.466Z,100642.22
2022-10-25T21:10:57.782Z,100639.22
2022-10-25T21:13:26.479Z,100636.56
2022-10-25T21:15:54.413Z,100630.59
2022-10-25T21:18:27.808Z,100633.75
2022-10-25T21:20:56.388Z,100630.78
2022-10-25T21:23:24.024Z,100632.13
2022-10-25T21:25:58.323Z,100631.63
2022-10-25T21:28:26.308Z,100627.31
2022-10-25T21:30:54.164Z,100627.50
2022-10-25T21:33:23.290Z,100629.63
2022-10-25T21:35:50.875Z,100630.63
2022-10-25T21:38:18.528Z,100630.00
2022-10-25T21:40:46.121Z,100632.47
2022-10-25T21:43:13.703Z,100633.50
2022-10-25T21:45:42.358Z,100631.63
2022-10-25T21:48:09.938Z,100626.50
2022-10-25T21:50:38.805Z,100625.28
2022-10-25T21:53:06.331Z,100622.41
2022-10-25T21:55:33.896Z,100636.59
2022-10-25T21:58:01.455Z,100633.47
2022-10-25T22:00:29.000Z,100629.28
2022-10-25T22:02:56.970Z,100628.47
2022-10-25T22:05:24.645Z,100630.28
2022-10-25T22:07:53.575Z,100625.13
2022-10-25T22:10:21.174Z,100624.94
2022-10-25T22:12:49.059Z,100622.63
2022-10-25T22:15:17.325Z,100617.47
2022-10-25T22:17:44.931Z,100619.47
2022-10-25T22:20:12.746Z,100622.28
2022-10-25T22:22:40.293Z,100615.94
2022-10-25T22:25:09.772Z,100612.25
2022-10-25T22:27:37.367Z,100624.78
2022-10-25T22:30:05.442Z,100607.25
2022-10-25T22:32:33.065Z,100601.91
2022-10-25T22:35:00.641Z,100597.41
2022-10-25T22:37:28.281Z,100589.22
2022-10-25T22:39:55.875Z,100592.19
2022-10-25T22:42:25.766Z,100603.03
2022-10-25T22:44:53.328Z,100592.47
2022-10-25T22:47:20.866Z,100590.69
2022-10-25T22:49:48.560Z,100590.53
2022-10-25T22:52:16.114Z,100592.56
2022-10-25T22:54:43.780Z,100598.91
2022-10-25T22:57:11.800Z,100599.56
2022-10-25T22:59:40.696Z,100593.34
2022-10-25T23:02:08.261Z,100596.03
2022-10-25T23:04:35.897Z,100592.03
2022-10-25T23:07:03.524Z,100604.22
2022-10-25T23:09:31.146Z,100592.88
2022-10-25T23:11:58.704Z,100590.69
2022-10-25T23:14:26.313Z,100591.69
2022-10-25T23:16:55.219Z,100588.19
2022-10-25T23:19:22.793Z,100585.16
2022-10-25T23:21:50.349Z,100580.78
2022-10-25T23:24:18.066Z,100579.94
2022-10-25T23:26:45.640Z,100585.75
2022-10-25T23:29:13.726Z,100582.25
2022-10-25T23:31:41.555Z,100587.09
2022-10-25T23:34:11.381Z,100596.88
2022-10-25T23:36:39.054Z,100589.53
2022-10-25T23:39:08.372Z,100592.03
2022-10-25T23:41:36.301Z,100577.91
2022-10-25T23:44:04.088Z,100566.66
2022-10-25T23:46:31.666Z,100574.84
2022-10-25T23:48:59.491Z,100577.06
2022-10-25T23:51:28.425Z,100586.53
2022-10-25T23:53:56.062Z,100587.38
2022-10-25T23:56:23.627Z,100579.34
2022-10-25T23:58:53.387Z,100575.41
